首页
METAR-TAF:

METAR-TAF

机场 :

沃思堡, 得克萨斯州, 美国

纬度: 32-49-31N, 经度: 097-21-51W, 海拔: 216米

当前天气观测

该预报发布于1小时和7分钟前的03:53 UTC
风速9节,风向东南
温度 28°C
湿度 58%
气压 1010 hPa
能見度: 16.1公里
天空无云

METAR: KFTW 170353Z AUTO 14009KT 10SM CLR 28/19 A2983 RMK AO2 SLP091 T02780194

时间: 00:00 (05:00 UTC)

预报

该预报发布于2小时和5分钟前的02:55 UTC
预报有效从17日的 03点(UTC)到 17日的 24点(UTC)
风速16节,风向东南
能見度: 10公里
少量云层高于6000英尺
从 17日的 1200点(UTC)
风速10节,风向
能見度: 10公里
多云层高于1800英尺
从 17日的 1700点(UTC)
风速17节,风向
能見度: 10公里
散云层高于3500英尺

TAF: KFTW 170255Z 1703/1724 14016KT P6SM FEW060 FM171200 17010KT P6SM BKN018 FM171700 17017KT P6SM SCT035

超过4000个机场的气象观测和天气预报(METAR&TAF报告)。

可查询的气象台以黄色和红色小点在地图上表示。

将鼠标移到小点上方,可查看气象台名称。

然后点击查看天气观测和预报。

如需切换地图:点击带黑十字的绿色按钮放大地图;点击带横线的绿色按钮缩小地图;或者点击绿色箭头查看邻近地区的地图。


METAR-TAF: